Time;durP1;ratioP1;P1;durP2;ratioP2;P2;SDS_P1;SDS_P2;PMS_P1;PMS_P2;Temp;Humidity;BMP_temperature;BMP_pressure;BME280_temperature;BME280_humidity;BME280_pressure;Samples;Min_cycle;Max_cycle;Signal;HPM_P1;HPM_P2
2022/08/24 00:01:50;;;;;;;;;;;;;;;24.18;59.64;99073.31;5011836;28;19910;-77
2022/08/24 00:04:15;;;;;;;;;;;;;;;24.17;59.85;99071.69;5012003;28;19909;-77
2022/08/24 00:06:41;;;;;;;;;;;;;;;24.20;59.09;99068.44;5010467;28;19909;-77
2022/08/24 00:09:06;;;;;;;;;;;;;;;24.18;59.95;99068.72;5011534;28;19913;-77
2022/08/24 00:11:31;;;;;;;;;;;;;;;24.21;59.46;99064.66;5011664;28;19985;-77
2022/08/24 00:13:57;;;;;;;;;;;;;;;24.22;59.82;99068.97;5010409;28;20318;-77
2022/08/24 00:16:22;;;;;;;;;;;;;;;24.22;59.33;99067.06;5011717;28;19971;-77
2022/08/24 00:18:48;;;;;;;;;;;;;;;24.21;58.65;99081.66;5011681;28;19925;-77
2022/08/24 00:21:13;;;;;;;;;;;;;;;24.17;59.23;99077.88;5011862;28;20052;-77
2022/08/24 00:23:38;;;;;;;;;;;;;;;24.16;58.84;99078.16;5012656;28;19905;-77
2022/08/24 00:26:04;;;;;;;;;;;;;;;24.14;59.42;99078.44;5014109;28;19917;-77
2022/08/24 00:28:29;;;;;;;;;;;;;;;24.07;59.26;99076.06;5015226;28;19916;-77
2022/08/24 00:30:55;;;;;;;;;;;;;;;23.98;59.47;99077.72;5015127;28;20449;-77
2022/08/24 00:33:20;;;;;;;;;;;;;;;23.99;59.65;99076.63;5015206;28;19916;-77
2022/08/24 00:35:45;;;;;;;;;;;;;;;23.99;59.31;99086.63;5013898;28;19915;-77
2022/08/24 00:38:11;;;;;;;;;;;;;;;23.96;60.04;99093.38;5015024;28;20326;-77
2022/08/24 00:40:37;;;;;;;;;;;;;;;23.95;59.85;99086.38;5015370;28;19909;-77
2022/08/24 00:43:04;;;;;;;;;;;;;;;23.97;60.07;99094.97;5015012;28;19909;-77
2022/08/24 00:45:30;;;;;;;;;;;;;;;23.91;60.46;99096.09;5015045;28;19983;-77
2022/08/24 00:48:02;;;;;;;;;;;;;;;23.91;60.22;99101.47;5013696;28;19909;-77
2022/08/24 00:51:06;;;;;;;;;;;;;;;23.94;60.67;99111.72;5013530;28;20398;-77
2022/08/24 00:53:35;;;;;;;;;;;;;;;23.99;59.73;99105.50;4993285;28;20402;-77
2022/08/24 00:56:03;;;;;;;;;;;;;;;24.00;60.64;99102.53;4992906;28;19910;-77
2022/08/24 00:58:32;;;;;;;;;;;;;;;23.95;59.96;99105.25;5026285;28;20032;-77
2022/08/24 01:00:59;;;;;;;;;;;;;;;23.95;60.68;99102.53;5014699;28;19909;-77
2022/08/24 01:03:26;;;;;;;;;;;;;;;23.97;59.54;99108.47;5014538;28;20016;-77
2022/08/24 01:05:51;;;;;;;;;;;;;;;23.91;61.50;99123.06;5014668;28;19959;-77
2022/08/24 01:08:17;;;;;;;;;;;;;;;23.90;60.42;99126.03;5014530;28;19909;-77
2022/08/24 01:10:46;;;;;;;;;;;;;;;23.90;60.32;99132.22;5014370;28;19936;-78
2022/08/24 01:13:13;;;;;;;;;;;;;;;23.80;61.41;99118.78;5014468;28;19963;-78
2022/08/24 01:15:40;;;;;;;;;;;;;;;23.72;60.79;99114.72;5013127;28;19912;-78
2022/08/24 01:21:05;;;;;;;;;;;;;;;23.70;61.62;99116.91;5014487;28;19916;-78
2022/08/24 01:23:36;;;;;;;;;;;;;;;23.68;60.46;99123.63;5014570;28;19909;-78
2022/08/24 01:26:03;;;;;;;;;;;;;;;23.57;61.64;99130.13;5013064;28;19920;-78
2022/08/24 01:28:29;;;;;;;;;;;;;;;23.45;62.19;99133.91;5014322;28;19910;-78
2022/08/24 01:30:54;;;;;;;;;;;;;;;23.52;61.22;99125.53;5014305;28;19920;-78
2022/08/24 01:33:27;;;;;;;;;;;;;;;23.49;61.83;99125.28;5014167;28;19910;-78
2022/08/24 01:35:56;;;;;;;;;;;;;;;23.45;62.17;99125.81;5013222;28;19910;-78
2022/08/24 01:38:22;;;;;;;;;;;;;;;23.42;62.58;99133.63;5014018;28;20314;-78
2022/08/24 01:40:50;;;;;;;;;;;;;;;23.40;61.87;99136.59;5012999;28;19909;-77
2022/08/24 01:43:15;;;;;;;;;;;;;;;23.42;62.51;99142.53;5014057;28;19916;-77
2022/08/24 01:45:41;;;;;;;;;;;;;;;23.36;62.28;99138.22;5014210;28;20025;-77
2022/08/24 01:48:07;;;;;;;;;;;;;;;23.41;61.35;99145.50;5013782;28;19909;-77
2022/08/24 01:50:32;;;;;;;;;;;;;;;23.38;60.73;99146.03;5013708;28;20474;-78
2022/08/24 01:53:00;;;;;;;;;;;;;;;23.23;61.71;99146.06;5013936;28;19967;-78
2022/08/24 01:55:26;;;;;;;;;;;;;;;23.24;61.42;99150.34;5012505;28;19914;-78
2022/08/24 01:57:51;;;;;;;;;;;;;;;23.23;61.47;99156.81;5013643;28;19909;-78
2022/08/24 02:00:17;;;;;;;;;;;;;;;23.24;61.45;99148.47;5012358;28;20375;-78
2022/08/24 02:02:43;;;;;;;;;;;;;;;23.28;61.29;99152.25;5012273;28;19915;-78
2022/08/24 02:05:09;;;;;;;;;;;;;;;23.29;60.78;99159.25;5013726;28;19917;-78
2022/08/24 02:07:35;;;;;;;;;;;;;;;23.27;61.40;99157.91;5013655;28;20370;-78
2022/08/24 02:10:00;;;;;;;;;;;;;;;23.24;61.59;99153.06;5012080;28;19919;-78
2022/08/24 02:12:25;;;;;;;;;;;;;;;23.26;61.10;99157.09;5013561;28;19917;-78
2022/08/24 02:14:51;;;;;;;;;;;;;;;23.24;60.90;99150.34;5012049;28;19916;-78
2022/08/24 02:17:17;;;;;;;;;;;;;;;23.27;60.69;99157.91;5012028;28;19917;-78
2022/08/24 02:19:42;;;;;;;;;;;;;;;23.20;61.97;99154.66;5012036;28;19909;-78
2022/08/24 02:22:08;;;;;;;;;;;;;;;23.14;61.47;99146.59;5013252;28;19913;-78
2022/08/24 02:24:33;;;;;;;;;;;;;;;23.19;61.62;99151.16;5013231;28;19920;-78
2022/08/24 02:26:59;;;;;;;;;;;;;;;23.21;61.61;99158.97;5013075;28;19909;-78
2022/08/24 02:29:24;;;;;;;;;;;;;;;23.15;61.64;99139.31;5012948;28;20401;-78
2022/08/24 02:31:49;;;;;;;;;;;;;;;23.11;62.35;99144.44;5012918;28;19915;-78
2022/08/24 02:34:15;;;;;;;;;;;;;;;23.03;61.72;99139.56;5011756;28;19909;-78
2022/08/24 02:36:40;;;;;;;;;;;;;;;23.00;61.81;99141.97;5013103;28;19946;-78
2022/08/24 02:39:06;;;;;;;;;;;;;;;22.99;62.47;99132.28;5011550;28;20381;-78
2022/08/24 02:41:31;;;;;;;;;;;;;;;22.99;63.20;99137.69;5011611;28;19909;-78
2022/08/24 02:43:57;;;;;;;;;;;;;;;22.92;62.95;99134.44;5012879;28;19910;-77
2022/08/24 02:46:26;;;;;;;;;;;;;;;22.94;62.85;99143.88;5012769;28;19913;-78
2022/08/24 02:48:52;;;;;;;;;;;;;;;22.86;62.70;99152.47;5012726;28;20279;-78
2022/08/24 02:51:19;;;;;;;;;;;;;;;22.89;62.68;99156.50;5012624;28;19936;-78
2022/08/24 02:53:44;;;;;;;;;;;;;;;22.86;62.64;99154.34;5012784;28;19968;-77
2022/08/24 02:56:09;;;;;;;;;;;;;;;22.86;62.87;99155.16;5011370;28;20383;-78
2022/08/24 02:58:34;;;;;;;;;;;;;;;22.87;62.80;99146.00;5012748;28;19909;-77
2022/08/24 03:01:00;;;;;;;;;;;;;;;22.85;62.69;99145.47;5012535;28;19924;-77
2022/08/24 03:03:25;;;;;;;;;;;;;;;22.80;63.23;99153.53;5012614;28;19913;-77
2022/08/24 03:05:50;;;;;;;;;;;;;;;22.72;63.50;99151.34;5012531;28;20003;-77
2022/08/24 03:08:17;;;;;;;;;;;;;;;22.73;65.05;99150.28;5012310;28;19910;-78
2022/08/24 03:10:42;;;;;;;;;;;;;;;22.77;63.87;99148.66;5012244;28;19921;-77
2022/08/24 03:13:08;;;;;;;;;;;;;;;22.85;63.51;99141.97;5012346;28;19909;-77
2022/08/24 03:15:34;;;;;;;;;;;;;;;22.76;63.31;99144.34;5012359;28;19917;-77
2022/08/24 03:17:59;;;;;;;;;;;;;;;22.71;64.66;99142.47;5012297;28;19924;-77
2022/08/24 03:20:25;;;;;;;;;;;;;;;22.76;64.77;99153.25;5012443;28;19909;-77
2022/08/24 03:22:50;;;;;;;;;;;;;;;22.80;62.60;99135.50;5012562;28;19909;-77
2022/08/24 03:25:16;;;;;;;;;;;;;;;22.89;63.06;99145.75;5012447;28;19909;-77
2022/08/24 03:27:42;;;;;;;;;;;;;;;22.96;63.13;99144.41;5012323;28;20387;-77
2022/08/24 03:30:09;;;;;;;;;;;;;;;22.92;62.78;99142.50;5012279;28;19925;-77
2022/08/24 03:32:34;;;;;;;;;;;;;;;22.99;63.20;99143.88;5012381;28;19916;-78
2022/08/24 03:35:01;;;;;;;;;;;;;;;22.94;62.82;99143.88;5012220;28;19953;-77
2022/08/24 03:37:26;;;;;;;;;;;;;;;23.01;61.85;99144.41;5010864;28;20313;-77
2022/08/24 03:39:51;;;;;;;;;;;;;;;23.05;61.68;99152.78;5011831;28;19967;-77
2022/08/24 03:42:17;;;;;;;;;;;;;;;23.06;61.71;99149.81;5012113;28;19910;-77
2022/08/24 03:44:42;;;;;;;;;;;;;;;23.09;61.81;99151.16;5010840;28;20279;-77
2022/08/24 03:47:09;;;;;;;;;;;;;;;23.05;61.69;99153.59;5012055;28;19915;-78
2022/08/24 03:49:35;;;;;;;;;;;;;;;23.05;61.88;99152.78;5010596;28;19913;-78
2022/08/24 03:52:00;;;;;;;;;;;;;;;23.03;61.19;99161.09;5011828;28;19932;-78
2022/08/24 03:54:25;;;;;;;;;;;;;;;23.05;61.23;99164.38;5011972;28;19913;-78
2022/08/24 03:56:51;;;;;;;;;;;;;;;23.05;61.58;99163.56;5010646;28;19910;-78
2022/08/24 03:59:16;;;;;;;;;;;;;;;23.12;61.06;99158.72;5013989;28;20357;-77
2022/08/24 04:01:42;;;;;;;;;;;;;;;23.24;60.48;99163.81;5015861;28;19915;-77
2022/08/24 04:04:07;;;;;;;;;;;;;;;23.19;60.99;99166.53;5016050;28;19921;-77
2022/08/24 04:06:32;;;;;;;;;;;;;;;23.12;61.21;99159.53;5016046;28;19913;-77
2022/08/24 04:08:58;;;;;;;;;;;;;;;23.19;60.64;99170.03;5015602;28;19984;-77
2022/08/24 04:11:27;;;;;;;;;;;;;;;23.22;60.81;99172.19;5015416;28;20077;-77
2022/08/24 04:13:55;;;;;;;;;;;;;;;23.29;61.01;99171.91;5015420;28;19910;-77
2022/08/24 04:16:20;;;;;;;;;;;;;;;23.31;60.24;99167.88;5015527;28;19910;-77
2022/08/24 04:18:46;;;;;;;;;;;;;;;23.28;60.59;99173.78;5015547;28;19924;-77
2022/08/24 04:21:20;;;;;;;;;;;;;;;23.30;60.68;99174.31;5015344;28;19992;-77
2022/08/24 04:23:45;;;;;;;;;;;;;;;23.36;60.36;99184.03;5015209;28;19916;-78
2022/08/24 04:26:11;;;;;;;;;;;;;;;23.39;60.04;99186.19;5015591;28;19909;-78
2022/08/24 04:28:36;;;;;;;;;;;;;;;23.36;60.19;99186.72;5015353;28;20310;-78
2022/08/24 04:31:04;;;;;;;;;;;;;;;23.34;60.64;99182.69;5015824;28;19967;-77
2022/08/24 04:33:30;;;;;;;;;;;;;;;23.27;60.89;99182.94;5014114;28;19996;-77
2022/08/24 04:35:56;;;;;;;;;;;;;;;23.18;61.06;99179.19;5015349;28;19909;-77
2022/08/24 04:38:21;;;;;;;;;;;;;;;23.30;60.93;99187.00;5014171;28;19920;-77
2022/08/24 04:40:47;;;;;;;;;;;;;;;23.42;60.37;99184.81;5015264;28;20351;-77
2022/08/24 04:43:16;;;;;;;;;;;;;;;23.48;60.39;99188.31;5013963;28;19909;-77
2022/08/24 04:45:43;;;;;;;;;;;;;;;23.53;59.66;99191.81;5013830;28;19909;-78
2022/08/24 04:48:10;;;;;;;;;;;;;;;23.52;60.39;99194.78;5015225;28;19932;-78
2022/08/24 04:50:39;;;;;;;;;;;;;;;23.54;60.42;99200.72;5013738;28;19938;-78
2022/08/24 04:53:05;;;;;;;;;;;;;;;23.58;60.02;99194.53;5014907;28;20314;-78
2022/08/24 04:55:31;;;;;;;;;;;;;;;23.61;59.78;99202.09;5014740;28;19909;-78
2022/08/24 04:57:56;;;;;;;;;;;;;;;23.64;59.89;99203.44;5013596;28;20373;-78
2022/08/24 05:00:22;;;;;;;;;;;;;;;23.52;60.20;99194.78;5013658;28;19909;-78
2022/08/24 05:02:47;;;;;;;;;;;;;;;23.43;60.17;99195.34;5014801;28;20321;-78
2022/08/24 05:05:13;;;;;;;;;;;;;;;23.43;60.08;99189.94;5014888;28;19916;-78
2022/08/24 05:07:38;;;;;;;;;;;;;;;23.51;59.97;99187.78;5014819;28;20291;-78
2022/08/24 05:10:04;;;;;;;;;;;;;;;23.60;59.73;99195.06;5013377;28;20405;-77
2022/08/24 05:12:30;;;;;;;;;;;;;;;23.56;59.47;99194.00;5014359;28;19909;-77
2022/08/24 05:14:56;;;;;;;;;;;;;;;23.61;59.39;99190.50;5014460;28;19909;-77
2022/08/24 05:17:21;;;;;;;;;;;;;;;23.62;59.61;99189.41;5013127;28;19927;-77
2022/08/24 05:19:48;;;;;;;;;;;;;;;23.63;59.24;99183.75;5014502;28;19951;-77
2022/08/24 05:22:13;;;;;;;;;;;;;;;23.68;59.66;99182.94;5012901;28;19909;-77
2022/08/24 05:24:38;;;;;;;;;;;;;;;23.80;58.88;99188.88;5013941;28;19909;-77
2022/08/24 05:27:03;;;;;;;;;;;;;;;23.83;58.97;99188.31;5013894;28;19913;-77
2022/08/24 05:29:32;;;;;;;;;;;;;;;23.79;58.83;99195.34;5013863;28;19936;-77
2022/08/24 05:31:58;;;;;;;;;;;;;;;23.82;58.74;99184.00;5014234;28;20321;-77
2022/08/24 05:34:23;;;;;;;;;;;;;;;23.81;59.26;99186.97;5014032;28;19909;-77
2022/08/24 05:36:48;;;;;;;;;;;;;;;23.88;59.24;99193.72;5012833;28;19945;-77
2022/08/24 05:39:14;;;;;;;;;;;;;;;23.97;58.49;99191.25;5012476;28;19920;-78
2022/08/24 05:41:41;;;;;;;;;;;;;;;24.00;58.10;99188.00;5012487;28;19917;-77
2022/08/24 05:44:06;;;;;;;;;;;;;;;24.01;58.37;99193.13;5012057;28;19987;-77
2022/08/24 05:46:32;;;;;;;;;;;;;;;24.03;58.08;99201.75;5012746;28;19909;-77
2022/08/24 05:48:58;;;;;;;;;;;;;;;24.03;58.34;99200.94;5011742;28;19909;-77
2022/08/24 05:51:23;;;;;;;;;;;;;;;24.05;58.31;99202.28;5013405;28;20390;-77
2022/08/24 05:53:49;;;;;;;;;;;;;;;24.07;58.54;99199.31;5011925;28;19916;-77
2022/08/24 05:56:15;;;;;;;;;;;;;;;24.12;58.19;99201.19;5013644;28;19988;-77
2022/08/24 05:58:41;;;;;;;;;;;;;;;24.15;57.88;99197.94;5013466;28;19988;-77
2022/08/24 06:01:06;;;;;;;;;;;;;;;24.08;58.23;99201.75;5012178;28;19975;-77
2022/08/24 06:03:32;;;;;;;;;;;;;;;24.17;57.78;99203.88;5013245;28;20458;-77
2022/08/24 06:05:57;;;;;;;;;;;;;;;24.20;57.68;99197.91;5013280;28;19917;-77
2022/08/24 06:08:22;;;;;;;;;;;;;;;24.20;57.60;99204.13;5011891;28;19960;-78
2022/08/24 06:10:48;;;;;;;;;;;;;;;24.13;58.64;99200.91;5013298;28;19913;-78
2022/08/24 06:13:13;;;;;;;;;;;;;;;24.18;58.07;99209.00;5013408;28;19910;-77
2022/08/24 06:15:39;;;;;;;;;;;;;;;24.33;58.25;99205.44;5013153;28;19909;-77
2022/08/24 06:18:05;;;;;;;;;;;;;;;24.52;57.58;99206.44;5012932;28;19918;-77
2022/08/24 06:20:31;;;;;;;;;;;;;;;24.63;57.28;99207.22;5011562;28;19909;-78
2022/08/24 06:22:56;;;;;;;;;;;;;;;24.68;56.95;99199.91;5012702;28;19909;-78
2022/08/24 06:28:05;;;;;;;;;;;;;;;24.74;56.83;99194.47;5011652;28;19968;-77
2022/08/24 06:30:30;;;;;;;;;;;;;;;24.81;56.72;99203.88;5011388;28;19913;-77
2022/08/24 06:32:59;;;;;;;;;;;;;;;24.87;56.50;99196.56;5012496;28;19909;-77
2022/08/24 06:35:25;;;;;;;;;;;;;;;24.89;56.28;99197.88;5012826;28;19910;-77
2022/08/24 06:37:50;;;;;;;;;;;;;;;24.97;55.87;99200.03;5012769;28;19910;-77
2022/08/24 06:40:15;;;;;;;;;;;;;;;24.61;55.76;99148.13;5012927;28;19901;-77
2022/08/24 06:42:40;;;;;;;;;;;;;;;25.08;55.41;99211.56;5050494;28;20436;-77
2022/08/24 06:45:06;;;;;;;;;;;;;;;25.03;55.50;99207.00;5042403;28;19912;-77
2022/08/24 06:47:31;;;;;;;;;;;;;;;25.09;55.13;99207.78;5047043;28;19947;-77
2022/08/24 06:49:57;;;;;;;;;;;;;;;25.15;55.10;99198.53;5047290;28;20030;-77
2022/08/24 06:52:23;;;;;;;;;;;;;;;25.17;55.00;99211.78;5050956;28;19999;-77
2022/08/24 06:54:48;;;;;;;;;;;;;;;25.18;55.10;99207.97;5052170;28;20374;-77
2022/08/24 06:57:14;;;;;;;;;;;;;;;25.28;55.16;99205.22;5040873;28;19917;-77
2022/08/24 06:59:41;;;;;;;;;;;;;;;25.30;54.73;99211.16;5042040;28;19955;-77
2022/08/24 07:02:07;;;;;;;;;;;;;;;25.27;54.64;99219.84;5043700;28;19917;-77
2022/08/24 07:04:32;;;;;;;;;;;;;;;25.36;54.70;99217.34;5035208;28;19913;-77
2022/08/24 07:06:57;;;;;;;;;;;;;;;25.25;54.37;99222.78;5032300;28;19909;-77
2022/08/24 07:09:23;;;;;;;;;;;;;;;25.28;54.71;99224.16;5040349;28;19920;-77
2022/08/24 07:11:49;;;;;;;;;;;;;;;25.36;54.75;99220.03;5037060;28;19916;-77
2022/08/24 07:14:14;;;;;;;;;;;;;;;25.42;54.70;99227.00;5020858;28;20058;-77
2022/08/24 07:16:40;;;;;;;;;;;;;;;25.45;54.51;99226.44;5034655;28;19913;-78
2022/08/24 07:19:05;;;;;;;;;;;;;;;25.51;54.41;99219.91;5031525;28;20356;-78
2022/08/24 07:21:31;;;;;;;;;;;;;;;25.59;54.65;99220.09;5033738;28;19919;-78
2022/08/24 07:23:57;;;;;;;;;;;;;;;25.65;54.35;99219.00;5032639;28;19924;-78
2022/08/24 07:26:25;;;;;;;;;;;;;;;25.75;54.15;99223.50;5039849;28;20318;-78
2022/08/24 07:28:52;;;;;;;;;;;;;;;25.85;54.06;99222.59;5031659;28;19916;-77
2022/08/24 07:31:17;;;;;;;;;;;;;;;25.89;53.79;99227.13;5030294;28;19913;-77
2022/08/24 07:33:43;;;;;;;;;;;;;;;25.92;53.88;99226.56;5031115;28;19923;-77
2022/08/24 07:36:09;;;;;;;;;;;;;;;26.02;53.88;99222.97;5029851;28;19962;-77
2022/08/24 07:38:34;;;;;;;;;;;;;;;26.05;53.58;99227.81;5030037;28;19912;-77
2022/08/24 07:41:00;;;;;;;;;;;;;;;26.04;53.23;99238.94;5031197;28;19909;-78
2022/08/24 07:43:25;;;;;;;;;;;;;;;26.11;53.15;99223.16;5030191;28;19913;-77
2022/08/24 07:45:51;;;;;;;;;;;;;;;26.18;52.96;99229.84;5030523;28;19913;-78
2022/08/24 07:48:16;;;;;;;;;;;;;;;26.24;53.29;99233.28;5030912;28;20295;-77
2022/08/24 07:50:41;;;;;;;;;;;;;;;26.24;52.87;99228.69;5030798;28;20000;-77
2022/08/24 07:53:07;;;;;;;;;;;;;;;26.34;52.46;99229.69;5030975;28;20447;-77
2022/08/24 07:55:32;;;;;;;;;;;;;;;26.43;51.73;99217.94;5031059;28;19916;-77
2022/08/24 07:57:58;;;;;;;;;;;;;;;26.47;51.06;99216.25;5030370;28;19905;-78
2022/08/24 08:00:24;;;;;;;;;;;;;;;26.54;51.95;99216.69;5031295;28;19947;-77
2022/08/24 08:02:49;;;;;;;;;;;;;;;26.63;51.73;99210.63;5020228;28;20302;-77
2022/08/24 08:05:15;;;;;;;;;;;;;;;26.69;51.82;99206.75;5033690;28;19916;-78
2022/08/24 08:07:41;;;;;;;;;;;;;;;26.81;51.25;99210.66;5033139;28;19914;-77
2022/08/24 08:10:07;;;;;;;;;;;;;;;26.86;50.83;99198.97;5036121;28;19917;-77
2022/08/24 08:12:32;;;;;;;;;;;;;;;26.86;49.99;99209.78;5029871;28;20417;-77
2022/08/24 08:14:58;;;;;;;;;;;;;;;26.94;49.97;99202.91;5035973;28;19948;-77
2022/08/24 08:17:23;;;;;;;;;;;;;;;26.98;50.65;99204.75;5032935;28;19927;-77
2022/08/24 08:19:49;;;;;;;;;;;;;;;26.99;50.57;99200.97;5031161;28;19913;-77
2022/08/24 08:24:58;;;;;;;;;;;;;;;27.07;50.19;99191.34;5031400;28;20022;-78
2022/08/24 08:27:24;;;;;;;;;;;;;;;27.16;50.06;99193.09;5024455;28;20398;-77
2022/08/24 08:29:49;;;;;;;;;;;;;;;27.30;48.44;99200.47;5030545;28;19917;-78
2022/08/24 08:32:16;;;;;;;;;;;;;;;27.39;48.57;99209.53;5030277;28;19909;-78
2022/08/24 08:34:45;;;;;;;;;;;;;;;27.45;48.32;99209.16;5035471;28;19988;-77
2022/08/24 08:37:11;;;;;;;;;;;;;;;27.57;47.98;99205.19;5029049;28;19967;-77
2022/08/24 08:39:37;;;;;;;;;;;;;;;27.70;47.27;99204.44;5031384;28;20438;-78
2022/08/24 08:42:02;;;;;;;;;;;;;;;27.80;48.39;99207.78;5044200;28;19995;-77
2022/08/24 08:44:42;;;;;;;;;;;;;;;27.98;48.29;99208.81;5034065;28;20004;-78
2022/08/24 08:47:26;;;;;;;;;;;;;;;28.15;48.09;99200.06;5034125;28;19940;-78
2022/08/24 08:50:06;;;;;;;;;;;;;;;28.35;47.13;99205.13;5019630;28;19920;-78
2022/08/24 08:52:50;;;;;;;;;;;;;;;28.55;47.14;99198.47;5034364;28;19909;-77
2022/08/24 08:55:34;;;;;;;;;;;;;;;28.76;46.30;99198.81;5034152;28;19916;-78
2022/08/24 08:58:10;;;;;;;;;;;;;;;28.97;46.91;99216.28;5032863;28;19912;-78
2022/08/24 09:00:41;;;;;;;;;;;;;;;29.20;46.77;99197.31;5040965;28;19999;-78
2022/08/24 09:03:20;;;;;;;;;;;;;;;29.29;44.48;99190.00;5037978;28;19948;-78
2022/08/24 09:05:46;;;;;;;;;;;;;;;29.37;44.80;99187.34;5034161;28;19916;-78
2022/08/24 09:08:17;;;;;;;;;;;;;;;29.46;45.81;99186.63;5042187;28;20321;-78
2022/08/24 09:10:57;;;;;;;;;;;;;;;29.59;45.51;99183.81;5029014;28;19917;-78
2022/08/24 09:13:22;;;;;;;;;;;;;;;29.53;46.01;99173.38;5031688;28;19913;-77
2022/08/24 09:15:47;;;;;;;;;;;;;;;29.45;45.80;99164.06;5034156;28;19966;-77
2022/08/24 09:18:40;;;;;;;;;;;;;;;29.53;44.96;99173.38;5051703;28;20333;-78
2022/08/24 09:21:17;;;;;;;;;;;;;;;29.34;45.95;99176.28;5042283;28;19956;-78
2022/08/24 09:24:01;;;;;;;;;;;;;;;28.92;46.38;99156.63;5033694;28;20004;-77
2022/08/24 09:26:28;;;;;;;;;;;;;;;28.83;46.19;99149.47;5032474;28;20459;-77
2022/08/24 09:29:01;;;;;;;;;;;;;;;28.72;46.67;99143.47;5034985;28;19913;-77
2022/08/24 09:32:02;;;;;;;;;;;;;;;28.67;46.42;99149.03;5048323;28;20417;-77
2022/08/24 09:34:30;;;;;;;;;;;;;;;28.69;46.57;99149.53;4957501;28;20005;-78
2022/08/24 09:37:03;;;;;;;;;;;;;;;28.66;47.21;99150.16;5032630;28;19920;-77
2022/08/24 09:39:35;;;;;;;;;;;;;;;28.58;46.72;99148.97;5058267;28;19917;-77
2022/08/24 09:42:00;;;;;;;;;;;;;;;28.53;46.95;99156.41;5043661;28;19913;-78
2022/08/24 09:44:26;;;;;;;;;;;;;;;28.48;47.01;99166.28;5046350;28;20480;-77
2022/08/24 09:46:56;;;;;;;;;;;;;;;28.40;47.20;99150.72;5036103;28;19913;-77
2022/08/24 09:49:31;;;;;;;;;;;;;;;28.42;47.30;99153.94;5033496;28;19932;-77
2022/08/24 09:52:15;;;;;;;;;;;;;;;28.44;47.21;99140.84;5029637;28;19994;-77
2022/08/24 09:54:59;;;;;;;;;;;;;;;28.55;47.03;99151.47;5029531;28;19924;-77
2022/08/24 09:57:29;;;;;;;;;;;;;;;28.79;46.95;99154.72;5028948;28;19920;-77
2022/08/24 10:00:12;;;;;;;;;;;;;;;29.15;46.27;99162.88;5054346;28;19917;-77
2022/08/24 10:02:49;;;;;;;;;;;;;;;29.54;45.71;99150.50;5054261;28;20444;-77
2022/08/24 10:05:24;;;;;;;;;;;;;;;29.64;45.11;99156.47;5029752;28;19969;-78
2022/08/24 10:08:08;;;;;;;;;;;;;;;29.64;44.68;99158.41;5027478;28;19913;-77
2022/08/24 10:10:57;;;;;;;;;;;;;;;29.63;44.08;99124.13;5031392;28;19952;-77
2022/08/24 10:13:31;;;;;;;;;;;;;;;30.21;44.07;99142.94;5024763;28;19921;-78
2022/08/24 10:16:01;;;;;;;;;;;;;;;30.79;43.47;99143.69;5029825;28;19913;-78
2022/08/24 10:18:37;;;;;;;;;;;;;;;31.20;42.21;99141.28;5031101;28;19924;-78
2022/08/24 10:21:18;;;;;;;;;;;;;;;31.64;42.09;99135.72;5053472;28;19920;-78
2022/08/24 10:23:46;;;;;;;;;;;;;;;32.00;42.08;99130.63;5022142;28;20055;-77
2022/08/24 10:26:17;;;;;;;;;;;;;;;32.17;41.50;99127.78;5030482;28;20314;-77
2022/08/24 10:29:01;;;;;;;;;;;;;;;32.35;40.52;99122.22;5031312;28;19913;-77
2022/08/24 10:31:52;;;;;;;;;;;;;;;32.62;39.84;99127.16;5028977;28;19924;-77
2022/08/24 10:34:27;;;;;;;;;;;;;;;32.86;38.61;99121.06;5027965;28;20360;-77
2022/08/24 10:37:11;;;;;;;;;;;;;;;33.12;39.52;99107.13;5027979;28;19999;-77
2022/08/24 10:39:42;;;;;;;;;;;;;;;33.32;38.88;99111.78;5030614;28;19913;-78
2022/08/24 10:45:13;;;;;;;;;;;;;;;33.05;38.66;99106.88;5030917;28;19920;-77
2022/08/24 10:47:44;;;;;;;;;;;;;;;33.18;37.13;99105.78;5029625;28;20576;-77
2022/08/24 10:50:12;;;;;;;;;;;;;;;33.34;39.19;99108.69;5031240;28;19912;-77
2022/08/24 10:52:52;;;;;;;;;;;;;;;33.34;38.43;99106.75;5032038;28;19932;-77
2022/08/24 10:55:24;;;;;;;;;;;;;;;33.53;37.02;99106.25;5031243;28;19913;-77
2022/08/24 10:57:52;;;;;;;;;;;;;;;33.64;38.52;99098.38;5031297;28;19909;-77
2022/08/24 11:00:20;;;;;;;;;;;;;;;33.23;37.20;99097.34;5030094;28;19916;-77
2022/08/24 11:02:47;;;;;;;;;;;;;;;32.93;38.71;99093.19;5031561;28;19913;-77
2022/08/24 11:05:14;;;;;;;;;;;;;;;32.98;39.75;99098.44;5029957;28;19963;-77
2022/08/24 11:07:57;;;;;;;;;;;;;;;32.94;38.35;99100.25;5031629;28;19915;-77
2022/08/24 11:10:27;;;;;;;;;;;;;;;32.69;39.85;99105.56;5031905;28;19921;-77
2022/08/24 11:12:52;;;;;;;;;;;;;;;32.54;39.21;99100.72;5030771;28;19916;-77
2022/08/24 11:15:22;;;;;;;;;;;;;;;32.54;38.38;99095.25;5031532;28;19909;-77
2022/08/24 11:17:55;;;;;;;;;;;;;;;32.44;39.67;99106.56;5030402;28;19924;-77
2022/08/24 11:20:29;;;;;;;;;;;;;;;32.24;40.06;99099.97;5031897;28;19916;-77
2022/08/24 11:23:01;;;;;;;;;;;;;;;32.01;40.70;99107.66;5031817;28;19978;-77
2022/08/24 11:25:28;;;;;;;;;;;;;;;31.90;40.01;99099.00;5030404;28;19916;-77
2022/08/24 11:28:02;;;;;;;;;;;;;;;31.78;41.04;99095.38;5030393;28;19905;-77
2022/08/24 11:30:28;;;;;;;;;;;;;;;31.55;40.50;99101.06;5029184;28;19917;-77
2022/08/24 11:33:01;;;;;;;;;;;;;;;31.49;41.81;99105.09;5030566;28;20259;-77
2022/08/24 11:35:32;;;;;;;;;;;;;;;31.77;41.46;99107.44;5031303;28;19913;-77
2022/08/24 11:38:15;;;;;;;;;;;;;;;31.85;41.35;99104.66;5031272;28;19909;-77
2022/08/24 11:40:42;;;;;;;;;;;;;;;31.70;41.06;99109.88;5031516;28;19909;-77
2022/08/24 11:43:07;;;;;;;;;;;;;;;31.50;41.45;99112.16;5031043;28;19952;-77
2022/08/24 11:45:39;;;;;;;;;;;;;;;31.33;41.52;99114.97;5030517;28;19909;-76
2022/08/24 11:48:17;;;;;;;;;;;;;;;31.21;41.91;99101.16;5029355;28;19913;-77
2022/08/24 11:50:56;;;;;;;;;;;;;;;31.80;40.75;99091.19;5031124;28;19913;-77
2022/08/24 11:53:40;;;;;;;;;;;;;;;32.21;41.07;99092.41;5031266;28;19913;-77
2022/08/24 11:56:11;;;;;;;;;;;;;;;32.23;40.00;99087.41;5029683;28;19996;-77
2022/08/24 11:58:36;;;;;;;;;;;;;;;32.30;40.24;99086.91;5030230;28;19908;-77
2022/08/24 12:01:14;;;;;;;;;;;;;;;32.40;40.12;99081.03;5030104;28;19959;-77
2022/08/24 12:03:48;;;;;;;;;;;;;;;32.36;39.35;99083.66;5031055;28;20357;-77
2022/08/24 12:06:32;;;;;;;;;;;;;;;32.51;39.52;99088.50;5031329;28;19916;-77
2022/08/24 12:09:23;;;;;;;;;;;;;;;32.98;39.08;99084.75;5030445;28;20373;-77
2022/08/24 12:12:06;;;;;;;;;;;;;;;33.14;38.34;99080.25;5031010;28;20465;-77
2022/08/24 12:14:36;;;;;;;;;;;;;;;32.90;39.20;99082.91;5030837;28;19992;-77
2022/08/24 12:17:03;;;;;;;;;;;;;;;32.56;39.33;99084.78;5031033;28;19987;-77
2022/08/24 12:19:36;;;;;;;;;;;;;;;32.27;39.04;99087.56;5027965;28;19913;-77
2022/08/24 12:22:08;;;;;;;;;;;;;;;32.00;40.04;99083.41;5032630;28;20408;-77
2022/08/24 12:24:41;;;;;;;;;;;;;;;31.92;40.79;99085.03;5031940;28;19919;-77
2022/08/24 12:27:10;;;;;;;;;;;;;;;32.08;40.77;99083.34;5031935;28;19913;-78
2022/08/24 12:29:39;;;;;;;;;;;;;;;32.16;40.74;99068.81;5030913;28;19967;-77
2022/08/24 12:32:10;;;;;;;;;;;;;;;32.63;39.79;99079.56;5026565;28;20409;-77
2022/08/24 12:34:42;;;;;;;;;;;;;;;32.68;39.27;99082.09;5055648;28;19913;-77
2022/08/24 12:37:12;;;;;;;;;;;;;;;32.76;38.46;99070.31;5024924;28;20329;-77
2022/08/24 12:39:41;;;;;;;;;;;;;;;32.94;38.28;99072.91;5033411;28;19912;-77
2022/08/24 12:42:06;;;;;;;;;;;;;;;32.73;38.74;99065.50;5032999;28;19960;-77
2022/08/24 12:44:46;;;;;;;;;;;;;;;32.77;38.82;99058.25;5033463;28;19952;-76
2022/08/24 12:47:17;;;;;;;;;;;;;;;32.69;38.38;99039.94;5033003;28;19990;-77
2022/08/24 12:49:45;;;;;;;;;;;;;;;32.67;38.29;99053.16;5032861;28;19921;-77
2022/08/24 12:52:29;;;;;;;;;;;;;;;32.66;38.33;99043.34;5032956;28;19912;-77
2022/08/24 12:55:01;;;;;;;;;;;;;;;32.64;39.64;99039.34;5032810;28;19920;-77
2022/08/24 12:57:32;;;;;;;;;;;;;;;32.95;38.30;99031.53;5032690;28;19917;-76
2022/08/24 13:00:05;;;;;;;;;;;;;;;33.28;38.17;99033.41;5032415;28;20345;-77
2022/08/24 13:02:39;;;;;;;;;;;;;;;33.17;37.95;99035.78;5032527;28;19917;-77
2022/08/24 13:05:10;;;;;;;;;;;;;;;33.16;37.20;99039.66;5030181;28;19917;-77
2022/08/24 13:07:44;;;;;;;;;;;;;;;33.06;37.08;99040.09;5028808;28;19919;-76